sensor_id;sensor_type;location;lat;lon;timestamp;pressure;altitude;pressure_sealevel;temperature;humidity
28008;BME280;15333;50.010;20.020;2023-05-21T00:00:23;99346.94;;;13.02;100.00
28008;BME280;15333;50.010;20.020;2023-05-21T00:03:44;99344.38;;;13.01;100.00
28008;BME280;15333;50.010;20.020;2023-05-21T00:06:49;99344.78;;;13.07;100.00
28008;BME280;15333;50.010;20.020;2023-05-21T00:09:51;99343.66;;;13.10;100.00
28008;BME280;15333;50.010;20.020;2023-05-21T00:12:52;99340.22;;;13.08;100.00
28008;BME280;15333;50.010;20.020;2023-05-21T00:15:53;99338.28;;;13.10;100.00
28008;BME280;15333;50.010;20.020;2023-05-21T00:18:54;99338.28;;;13.10;100.00
28008;BME280;15333;50.010;20.020;2023-05-21T00:21:55;99346.34;;;13.10;100.00
28008;BME280;15333;50.010;20.020;2023-05-21T00:24:57;99339.25;;;13.09;100.00
28008;BME280;15333;50.010;20.020;2023-05-21T00:27:58;99339.25;;;13.09;100.00
28008;BME280;15333;50.010;20.020;2023-05-21T00:30:58;99347.81;;;13.03;100.00
28008;BME280;15333;50.010;20.020;2023-05-21T00:33:59;99333.41;;;13.04;100.00
28008;BME280;15333;50.010;20.020;2023-05-21T00:37:00;99341.94;;;12.98;100.00
28008;BME280;15333;50.010;20.020;2023-05-21T00:40:03;99333.88;;;12.98;100.00
28008;BME280;15333;50.010;20.020;2023-05-21T00:43:11;99333.41;;;13.04;100.00
28008;BME280;15333;50.010;20.020;2023-05-21T00:46:16;99334.84;;;13.08;100.00
28008;BME280;15333;50.010;20.020;2023-05-21T00:49:19;99336.56;;;13.09;100.00
28008;BME280;15333;50.010;20.020;2023-05-21T00:52:22;99342.78;;;12.98;100.00
28008;BME280;15333;50.010;20.020;2023-05-21T00:55:26;99331.66;;;12.91;100.00
28008;BME280;15333;50.010;20.020;2023-05-21T00:58:28;99329.84;;;12.92;100.00
28008;BME280;15333;50.010;20.020;2023-05-21T01:01:30;99328.50;;;12.98;100.00
28008;BME280;15333;50.010;20.020;2023-05-21T01:04:33;99329.34;;;12.98;100.00
28008;BME280;15333;50.010;20.020;2023-05-21T01:07:37;99327.25;;;12.90;100.00
28008;BME280;15333;50.010;20.020;2023-05-21T01:10:38;99327.94;;;12.81;100.00
28008;BME280;15333;50.010;20.020;2023-05-21T01:13:40;99317.19;;;12.81;100.00
28008;BME280;15333;50.010;20.020;2023-05-21T01:16:44;99321.63;;;12.93;100.00
28008;BME280;15333;50.010;20.020;2023-05-21T01:19:46;99322.03;;;13.00;100.00
28008;BME280;15333;50.010;20.020;2023-05-21T01:22:54;99314.31;;;12.95;100.00
28008;BME280;15333;50.010;20.020;2023-05-21T01:25:55;99315.56;;;13.03;100.00
28008;BME280;15333;50.010;20.020;2023-05-21T01:28:56;99311.41;;;13.10;100.00
28008;BME280;15333;50.010;20.020;2023-05-21T01:32:51;99311.22;;;13.13;100.00
28008;BME280;15333;50.010;20.020;2023-05-21T01:36:04;99302.91;;;13.16;100.00
28008;BME280;15333;50.010;20.020;2023-05-21T01:39:22;99308.53;;;13.13;100.00
28008;BME280;15333;50.010;20.020;2023-05-21T01:42:28;99303.94;;;13.02;100.00
28008;BME280;15333;50.010;20.020;2023-05-21T01:45:31;99301.63;;;12.98;100.00
28008;BME280;15333;50.010;20.020;2023-05-21T01:48:33;99294.06;;;13.03;100.00
28008;BME280;15333;50.010;20.020;2023-05-21T01:51:35;99288.19;;;13.09;100.00
28008;BME280;15333;50.010;20.020;2023-05-21T01:54:37;99293.34;;;13.12;100.00
28008;BME280;15333;50.010;20.020;2023-05-21T01:57:37;99294.22;;;13.12;100.00
28008;BME280;15333;50.010;20.020;2023-05-21T02:00:39;99289.91;;;13.10;100.00
28008;BME280;15333;50.010;20.020;2023-05-21T02:03:39;99287.97;;;13.12;100.00
28008;BME280;15333;50.010;20.020;2023-05-21T02:06:40;99299.81;;;13.09;100.00
28008;BME280;15333;50.010;20.020;2023-05-21T02:09:41;99289.47;;;13.16;100.00
28008;BME280;15333;50.010;20.020;2023-05-21T02:12:42;99287.75;;;13.15;100.00
28008;BME280;15333;50.010;20.020;2023-05-21T02:15:43;99281.41;;;13.16;100.00
28008;BME280;15333;50.010;20.020;2023-05-21T02:18:44;99278.50;;;13.19;100.00
28008;BME280;15333;50.010;20.020;2023-05-21T02:21:47;99277.53;;;13.20;100.00
28008;BME280;15333;50.010;20.020;2023-05-21T02:24:48;99277.88;;;13.15;100.00
28008;BME280;15333;50.010;20.020;2023-05-21T02:27:49;99269.78;;;13.15;100.00
28008;BME280;15333;50.010;20.020;2023-05-21T02:30:53;99281.66;;;13.13;100.00
28008;BME280;15333;50.010;20.020;2023-05-21T02:33:54;99273.31;;;13.05;100.00
28008;BME280;15333;50.010;20.020;2023-05-21T02:36:56;99273.69;;;13.00;100.00
28008;BME280;15333;50.010;20.020;2023-05-21T02:39:59;99283.56;;;13.00;100.00
28008;BME280;15333;50.010;20.020;2023-05-21T02:43:01;99285.72;;;12.94;100.00
28008;BME280;15333;50.010;20.020;2023-05-21T02:46:05;99276.22;;;12.90;100.00
28008;BME280;15333;50.010;20.020;2023-05-21T02:49:07;99275.56;;;12.87;100.00
28008;BME280;15333;50.010;20.020;2023-05-21T02:52:07;99272.28;;;12.83;100.00
28008;BME280;15333;50.010;20.020;2023-05-21T02:55:08;99277.03;;;12.80;100.00
28008;BME280;15333;50.010;20.020;2023-05-21T02:58:09;99274.47;;;12.78;100.00
28008;BME280;15333;50.010;20.020;2023-05-21T03:01:13;99272.75;;;12.77;100.00
28008;BME280;15333;50.010;20.020;2023-05-21T03:04:14;99265.41;;;12.79;100.00
28008;BME280;15333;50.010;20.020;2023-05-21T03:07:17;99273.16;;;12.84;100.00
28008;BME280;15333;50.010;20.020;2023-05-21T03:10:19;99268.63;;;12.84;100.00
28008;BME280;15333;50.010;20.020;2023-05-21T03:13:20;99272.88;;;12.87;100.00
28008;BME280;15333;50.010;20.020;2023-05-21T03:16:22;99279.38;;;12.95;100.00
28008;BME280;15333;50.010;20.020;2023-05-21T03:19:23;99274.50;;;12.89;100.00
28008;BME280;15333;50.010;20.020;2023-05-21T03:22:24;99269.81;;;12.80;100.00
28008;BME280;15333;50.010;20.020;2023-05-21T03:25:25;99272.50;;;12.69;100.00
28008;BME280;15333;50.010;20.020;2023-05-21T03:28:28;99267.31;;;12.55;100.00
28008;BME280;15333;50.010;20.020;2023-05-21T03:31:30;99269.53;;;12.61;100.00
28008;BME280;15333;50.010;20.020;2023-05-21T03:34:51;99263.66;;;12.56;100.00
28008;BME280;15333;50.010;20.020;2023-05-21T03:37:52;99268.66;;;12.49;100.00
28008;BME280;15333;50.010;20.020;2023-05-21T03:40:53;99261.19;;;12.53;100.00
28008;BME280;15333;50.010;20.020;2023-05-21T03:43:55;99258.69;;;12.63;100.00
28008;BME280;15333;50.010;20.020;2023-05-21T03:46:59;99271.09;;;12.99;100.00
28008;BME280;15333;50.010;20.020;2023-05-21T03:50:03;99270.63;;;13.05;100.00
28008;BME280;15333;50.010;20.020;2023-05-21T03:53:05;99259.31;;;13.23;100.00
28008;BME280;15333;50.010;20.020;2023-05-21T03:56:07;99263.59;;;13.37;100.00
28008;BME280;15333;50.010;20.020;2023-05-21T03:59:08;99261.63;;;13.50;100.00
28008;BME280;15333;50.010;20.020;2023-05-21T04:02:10;99259.16;;;13.81;100.00
28008;BME280;15333;50.010;20.020;2023-05-21T04:05:10;99251.84;;;14.26;100.00
28008;BME280;15333;50.010;20.020;2023-05-21T04:08:13;99262.22;;;14.30;100.00
28008;BME280;15333;50.010;20.020;2023-05-21T04:11:14;99251.22;;;14.22;100.00
28008;BME280;15333;50.010;20.020;2023-05-21T04:14:15;99256.59;;;14.33;100.00
28008;BME280;15333;50.010;20.020;2023-05-21T04:17:15;99260.09;;;14.13;100.00
28008;BME280;15333;50.010;20.020;2023-05-21T04:20:19;99252.81;;;14.25;100.00
28008;BME280;15333;50.010;20.020;2023-05-21T04:23:20;99260.19;;;14.55;100.00
28008;BME280;15333;50.010;20.020;2023-05-21T04:26:24;99254.19;;;14.83;100.00
28008;BME280;15333;50.010;20.020;2023-05-21T04:29:25;99247.97;;;14.92;100.00
28008;BME280;15333;50.010;20.020;2023-05-21T04:32:26;99248.16;;;15.82;100.00
28008;BME280;15333;50.010;20.020;2023-05-21T04:35:27;99241.16;;;16.58;100.00
28008;BME280;15333;50.010;20.020;2023-05-21T04:38:29;99231.72;;;17.00;100.00
28008;BME280;15333;50.010;20.020;2023-05-21T04:41:30;99230.00;;;18.10;100.00
28008;BME280;15333;50.010;20.020;2023-05-21T04:44:31;99227.13;;;17.94;96.47
28008;BME280;15333;50.010;20.020;2023-05-21T04:47:34;99227.78;;;18.23;91.95
28008;BME280;15333;50.010;20.020;2023-05-21T04:50:35;99232.47;;;17.76;93.25
28008;BME280;15333;50.010;20.020;2023-05-21T04:53:36;99237.19;;;18.19;89.60
28008;BME280;15333;50.010;20.020;2023-05-21T04:56:37;99232.13;;;19.39;84.93
28008;BME280;15333;50.010;20.020;2023-05-21T04:59:38;99230.22;;;19.31;81.18
28008;BME280;15333;50.010;20.020;2023-05-21T05:02:39;99226.19;;;19.09;82.26
28008;BME280;15333;50.010;20.020;2023-05-21T05:05:40;99226.72;;;19.39;81.23
28008;BME280;15333;50.010;20.020;2023-05-21T05:08:42;99223.09;;;19.56;77.66
28008;BME280;15333;50.010;20.020;2023-05-21T05:11:42;99230.75;;;19.35;78.67
28008;BME280;15333;50.010;20.020;2023-05-21T05:14:44;99227.66;;;19.55;78.20
28008;BME280;15333;50.010;20.020;2023-05-21T05:17:45;99235.16;;;20.04;75.28
28008;BME280;15333;50.010;20.020;2023-05-21T05:20:50;99226.28;;;19.51;74.84
28008;BME280;15333;50.010;20.020;2023-05-21T05:23:51;99233.44;;;19.52;76.28
28008;BME280;15333;50.010;20.020;2023-05-21T05:26:56;99239.22;;;20.00;74.32
28008;BME280;15333;50.010;20.020;2023-05-21T05:29:57;99240.44;;;19.63;73.59
28008;BME280;15333;50.010;20.020;2023-05-21T05:32:58;99238.41;;;18.88;77.50
28008;BME280;15333;50.010;20.020;2023-05-21T05:35:59;99232.63;;;19.68;74.77
28008;BME280;15333;50.010;20.020;2023-05-21T05:39:00;99232.88;;;19.49;73.86
28008;BME280;15333;50.010;20.020;2023-05-21T05:42:02;99231.72;;;19.93;72.23
28008;BME280;15333;50.010;20.020;2023-05-21T05:45:04;99235.22;;;19.44;73.73
28008;BME280;15333;50.010;20.020;2023-05-21T05:48:05;99234.47;;;20.02;70.29
28008;BME280;15333;50.010;20.020;2023-05-21T05:51:06;99233.69;;;19.67;72.28
28008;BME280;15333;50.010;20.020;2023-05-21T05:54:07;99227.13;;;19.26;73.53
28008;BME280;15333;50.010;20.020;2023-05-21T05:57:10;99237.56;;;17.62;80.53
28008;BME280;15333;50.010;20.020;2023-05-21T06:00:12;99233.34;;;16.55;87.88
28008;BME280;15333;50.010;20.020;2023-05-21T06:03:13;99242.56;;;16.33;92.42
28008;BME280;15333;50.010;20.020;2023-05-21T06:06:15;99225.94;;;16.37;92.77
28008;BME280;15333;50.010;20.020;2023-05-21T06:09:17;99232.31;;;16.84;92.75
28008;BME280;15333;50.010;20.020;2023-05-21T06:12:18;99221.81;;;16.81;91.28
28008;BME280;15333;50.010;20.020;2023-05-21T06:15:19;99225.78;;;16.97;91.66
28008;BME280;15333;50.010;20.020;2023-05-21T06:18:20;99226.78;;;16.57;91.95
28008;BME280;15333;50.010;20.020;2023-05-21T06:21:21;99222.22;;;16.58;93.50
28008;BME280;15333;50.010;20.020;2023-05-21T06:24:22;99221.28;;;16.68;92.82
28008;BME280;15333;50.010;20.020;2023-05-21T06:27:23;99215.88;;;16.68;93.66
28008;BME280;15333;50.010;20.020;2023-05-21T06:30:24;99211.25;;;16.98;92.15
28008;BME280;15333;50.010;20.020;2023-05-21T06:33:27;99226.69;;;16.68;92.46
28008;BME280;15333;50.010;20.020;2023-05-21T06:36:27;99221.28;;;16.68;92.42
28008;BME280;15333;50.010;20.020;2023-05-21T06:39:31;99228.66;;;16.66;93.01
28008;BME280;15333;50.010;20.020;2023-05-21T06:42:32;99226.22;;;16.82;92.78
28008;BME280;15333;50.010;20.020;2023-05-21T06:46:03;99220.09;;;16.80;92.31
28008;BME280;15333;50.010;20.020;2023-05-21T06:49:14;99223.53;;;16.82;92.18
28008;BME280;15333;50.010;20.020;2023-05-21T06:52:15;99217.25;;;16.82;93.17
28008;BME280;15333;50.010;20.020;2023-05-21T06:55:16;99214.31;;;17.22;89.67
28008;BME280;15333;50.010;20.020;2023-05-21T06:58:43;99208.38;;;17.09;88.85
28008;BME280;15333;50.010;20.020;2023-05-21T07:01:44;99206.06;;;17.14;89.49
28008;BME280;15333;50.010;20.020;2023-05-21T07:04:45;99202.63;;;17.21;89.63
28008;BME280;15333;50.010;20.020;2023-05-21T07:07:46;99201.78;;;17.21;90.01
28008;BME280;15333;50.010;20.020;2023-05-21T07:10:48;99197.78;;;17.25;89.03
28008;BME280;15333;50.010;20.020;2023-05-21T07:13:51;99200.28;;;17.36;88.44
28008;BME280;15333;50.010;20.020;2023-05-21T07:16:53;99194.78;;;17.55;87.76
28008;BME280;15333;50.010;20.020;2023-05-21T07:19:53;99198.19;;;17.67;87.45
28008;BME280;15333;50.010;20.020;2023-05-21T07:22:55;99201.34;;;17.90;86.69
28008;BME280;15333;50.010;20.020;2023-05-21T07:25:57;99200.16;;;17.75;87.47
28008;BME280;15333;50.010;20.020;2023-05-21T07:28:59;99194.13;;;17.81;86.40
28008;BME280;15333;50.010;20.020;2023-05-21T07:32:01;99192.47;;;17.70;85.68
28008;BME280;15333;50.010;20.020;2023-05-21T07:35:02;99193.63;;;17.68;86.42
28008;BME280;15333;50.010;20.020;2023-05-21T07:38:05;99185.63;;;17.76;86.70
28008;BME280;15333;50.010;20.020;2023-05-21T07:41:06;99186.72;;;18.00;86.63
28008;BME280;15333;50.010;20.020;2023-05-21T07:44:07;99185.59;;;18.38;84.17
28008;BME280;15333;50.010;20.020;2023-05-21T07:47:13;99181.47;;;18.34;83.12
28008;BME280;15333;50.010;20.020;2023-05-21T07:50:14;99172.41;;;18.44;83.82
28008;BME280;15333;50.010;20.020;2023-05-21T07:53:15;99173.47;;;18.51;82.42
28008;BME280;15333;50.010;20.020;2023-05-21T07:56:17;99177.91;;;18.52;82.82
28008;BME280;15333;50.010;20.020;2023-05-21T07:59:18;99183.09;;;18.63;82.09
28008;BME280;15333;50.010;20.020;2023-05-21T08:02:19;99176.81;;;18.45;83.07
28008;BME280;15333;50.010;20.020;2023-05-21T08:05:20;99178.38;;;18.65;82.22
28008;BME280;15333;50.010;20.020;2023-05-21T08:08:24;99170.38;;;18.81;82.57
28008;BME280;15333;50.010;20.020;2023-05-21T08:11:27;99172.16;;;18.98;80.96
28008;BME280;15333;50.010;20.020;2023-05-21T08:14:28;99165.63;;;18.83;79.78
28008;BME280;15333;50.010;20.020;2023-05-21T08:17:30;99167.97;;;18.78;80.86
28008;BME280;15333;50.010;20.020;2023-05-21T08:20:31;99173.16;;;18.97;80.70
28008;BME280;15333;50.010;20.020;2023-05-21T08:23:34;99167.81;;;19.05;80.16
28008;BME280;15333;50.010;20.020;2023-05-21T08:26:35;99172.97;;;19.16;80.20
28008;BME280;15333;50.010;20.020;2023-05-21T08:29:36;99170.50;;;19.31;78.65
28008;BME280;15333;50.010;20.020;2023-05-21T08:32:39;99168.66;;;19.40;78.86
28008;BME280;15333;50.010;20.020;2023-05-21T08:35:40;99159.19;;;19.44;78.38
28008;BME280;15333;50.010;20.020;2023-05-21T08:38:53;99168.66;;;19.40;78.88
28008;BME280;15333;50.010;20.020;2023-05-21T08:45:40;99166.16;;;19.80;77.22
28008;BME280;15333;50.010;20.020;2023-05-21T08:48:43;99168.84;;;19.72;76.70
28008;BME280;15333;50.010;20.020;2023-05-21T08:51:46;99160.19;;;19.77;76.43
28008;BME280;15333;50.010;20.020;2023-05-21T08:54:50;99158.69;;;19.90;76.65
28008;BME280;15333;50.010;20.020;2023-05-21T08:57:53;99164.88;;;20.25;74.94
28008;BME280;15333;50.010;20.020;2023-05-21T09:00:55;99154.66;;;20.19;75.50
28008;BME280;15333;50.010;20.020;2023-05-21T09:04:02;99161.50;;;20.23;74.13
28008;BME280;15333;50.010;20.020;2023-05-21T09:07:04;99153.66;;;20.20;74.45
28008;BME280;15333;50.010;20.020;2023-05-21T09:10:37;99157.75;;;20.24;74.40
28008;BME280;15333;50.010;20.020;2023-05-21T09:13:40;99148.28;;;20.44;74.06
28008;BME280;15333;50.010;20.020;2023-05-21T09:16:49;99153.34;;;20.39;73.79
28008;BME280;15333;50.010;20.020;2023-05-21T09:20:10;99143.19;;;20.65;73.99
28008;BME280;15333;50.010;20.020;2023-05-21T09:23:16;99138.38;;;20.84;71.39
28008;BME280;15333;50.010;20.020;2023-05-21T09:26:20;99151.34;;;20.65;70.12
28008;BME280;15333;50.010;20.020;2023-05-21T09:29:21;99148.63;;;20.74;69.84
28008;BME280;15333;50.010;20.020;2023-05-21T09:32:22;99133.63;;;20.94;68.65
28008;BME280;15333;50.010;20.020;2023-05-21T09:35:23;99135.63;;;21.24;68.71
28008;BME280;15333;50.010;20.020;2023-05-21T09:38:24;99131.31;;;21.38;65.74
28008;BME280;15333;50.010;20.020;2023-05-21T09:41:35;99136.25;;;21.26;66.62
28008;BME280;15333;50.010;20.020;2023-05-21T09:44:39;99131.16;;;21.31;64.86
28008;BME280;15333;50.010;20.020;2023-05-21T09:47:43;99123.13;;;21.38;65.05
28008;BME280;15333;50.010;20.020;2023-05-21T09:50:44;99130.06;;;21.48;64.41
28008;BME280;15333;50.010;20.020;2023-05-21T09:53:54;99124.88;;;21.62;64.39
28008;BME280;15333;50.010;20.020;2023-05-21T09:56:59;99129.16;;;21.56;63.46
28008;BME280;15333;50.010;20.020;2023-05-21T10:00:00;99129.31;;;21.63;64.84
28008;BME280;15333;50.010;20.020;2023-05-21T10:03:05;99122.13;;;21.70;64.90
28008;BME280;15333;50.010;20.020;2023-05-21T10:06:09;99128.38;;;21.78;64.61
28008;BME280;15333;50.010;20.020;2023-05-21T10:09:14;99127.31;;;21.87;62.91
28008;BME280;15333;50.010;20.020;2023-05-21T10:12:18;99119.72;;;22.06;60.45
28008;BME280;15333;50.010;20.020;2023-05-21T10:15:23;99111.84;;;22.11;60.33
28008;BME280;15333;50.010;20.020;2023-05-21T10:18:25;99118.59;;;21.92;57.95
28008;BME280;15333;50.010;20.020;2023-05-21T10:21:27;99116.28;;;21.81;59.65
28008;BME280;15333;50.010;20.020;2023-05-21T10:24:28;99117.34;;;21.72;61.20
28008;BME280;15333;50.010;20.020;2023-05-21T10:27:29;99108.03;;;21.89;59.96
28008;BME280;15333;50.010;20.020;2023-05-21T10:30:31;99107.78;;;21.76;60.52
28008;BME280;15333;50.010;20.020;2023-05-21T10:33:34;99118.47;;;21.85;59.73
28008;BME280;15333;50.010;20.020;2023-05-21T10:36:35;99109.72;;;21.90;59.84
28008;BME280;15333;50.010;20.020;2023-05-21T10:39:38;99109.72;;;21.90;59.47
28008;BME280;15333;50.010;20.020;2023-05-21T10:42:58;99102.03;;;22.02;60.37
28008;BME280;15333;50.010;20.020;2023-05-21T10:49:34;99098.25;;;22.25;59.51
28008;BME280;15333;50.010;20.020;2023-05-21T10:59:38;99090.06;;;22.03;60.00
28008;BME280;15333;50.010;20.020;2023-05-21T11:02:41;99096.22;;;22.27;59.69
28008;BME280;15333;50.010;20.020;2023-05-21T11:05:54;99090.88;;;22.11;56.42
28008;BME280;15333;50.010;20.020;2023-05-21T11:08:55;99095.34;;;22.04;57.02
28008;BME280;15333;50.010;20.020;2023-05-21T11:11:57;99096.44;;;22.18;56.84
28008;BME280;15333;50.010;20.020;2023-05-21T11:14:58;99075.53;;;22.33;56.15
28008;BME280;15333;50.010;20.020;2023-05-21T11:17:59;99072.41;;;22.59;55.49
28008;BME280;15333;50.010;20.020;2023-05-21T11:21:17;99071.75;;;22.57;56.52
28008;BME280;15333;50.010;20.020;2023-05-21T11:24:19;99087.28;;;22.71;53.05
28008;BME280;15333;50.010;20.020;2023-05-21T11:27:37;99081.34;;;22.67;52.00
28008;BME280;15333;50.010;20.020;2023-05-21T11:30:38;99085.50;;;22.63;51.04
28008;BME280;15333;50.010;20.020;2023-05-21T11:33:39;99077.28;;;22.63;50.98
28008;BME280;15333;50.010;20.020;2023-05-21T11:36:41;99083.97;;;22.61;50.67
28008;BME280;15333;50.010;20.020;2023-05-21T11:39:44;99079.63;;;22.66;49.53
28008;BME280;15333;50.010;20.020;2023-05-21T11:42:50;99072.00;;;22.85;50.08
28008;BME280;15333;50.010;20.020;2023-05-21T11:45:51;99076.13;;;23.10;49.04
28008;BME280;15333;50.010;20.020;2023-05-21T11:48:53;99082.44;;;22.96;48.75
28008;BME280;15333;50.010;20.020;2023-05-21T11:51:55;99066.34;;;23.01;49.75
28008;BME280;15333;50.010;20.020;2023-05-21T11:54:56;99082.66;;;22.94;49.70
28008;BME280;15333;50.010;20.020;2023-05-21T11:57:57;99070.03;;;22.93;49.80
28008;BME280;15333;50.010;20.020;2023-05-21T12:00:59;99068.31;;;22.92;48.92
28008;BME280;15333;50.010;20.020;2023-05-21T12:04:03;99063.81;;;22.99;48.75
28008;BME280;15333;50.010;20.020;2023-05-21T12:07:08;99059.28;;;23.07;49.04
28008;BME280;15333;50.010;20.020;2023-05-21T12:10:09;99056.28;;;23.01;48.95
28008;BME280;15333;50.010;20.020;2023-05-21T12:13:10;99053.81;;;22.77;49.29
28008;BME280;15333;50.010;20.020;2023-05-21T12:16:11;99051.94;;;22.92;48.63
28008;BME280;15333;50.010;20.020;2023-05-21T12:19:16;99066.34;;;22.86;48.62
28008;BME280;15333;50.010;20.020;2023-05-21T12:22:17;99056.59;;;22.69;48.93
28008;BME280;15333;50.010;20.020;2023-05-21T12:25:21;99057.69;;;22.83;48.02
28008;BME280;15333;50.010;20.020;2023-05-21T12:28:22;99065.47;;;22.71;48.60
28008;BME280;15333;50.010;20.020;2023-05-21T12:31:24;99067.28;;;22.79;48.41
28008;BME280;15333;50.010;20.020;2023-05-21T12:34:56;99062.28;;;22.82;48.47
28008;BME280;15333;50.010;20.020;2023-05-21T12:38:00;99049.94;;;22.72;48.17
28008;BME280;15333;50.010;20.020;2023-05-21T12:41:07;99057.00;;;22.66;47.82
28008;BME280;15333;50.010;20.020;2023-05-21T12:44:10;99053.19;;;22.67;48.45
28008;BME280;15333;50.010;20.020;2023-05-21T12:47:12;99063.63;;;22.86;48.04
28008;BME280;15333;50.010;20.020;2023-05-21T12:50:13;99056.06;;;22.88;47.47
28008;BME280;15333;50.010;20.020;2023-05-21T12:53:14;99054.53;;;22.71;46.20
28008;BME280;15333;50.010;20.020;2023-05-21T12:56:15;99056.69;;;22.61;46.25
28008;BME280;15333;50.010;20.020;2023-05-21T12:59:15;99050.63;;;22.88;46.46
28008;BME280;15333;50.010;20.020;2023-05-21T13:02:22;99047.34;;;22.78;47.05
28008;BME280;15333;50.010;20.020;2023-05-21T13:05:23;99041.31;;;22.97;47.04
28008;BME280;15333;50.010;20.020;2023-05-21T13:08:24;99045.06;;;22.82;46.77
28008;BME280;15333;50.010;20.020;2023-05-21T13:11:25;99037.44;;;22.92;45.75
28008;BME280;15333;50.010;20.020;2023-05-21T13:14:26;99035.09;;;23.03;45.81
28008;BME280;15333;50.010;20.020;2023-05-21T13:17:27;99039.91;;;23.01;45.82
28008;BME280;15333;50.010;20.020;2023-05-21T13:20:28;99039.41;;;22.98;45.69
28008;BME280;15333;50.010;20.020;2023-05-21T13:23:29;99034.41;;;22.72;45.58
28008;BME280;15333;50.010;20.020;2023-05-21T13:26:30;99029.00;;;23.01;45.20
28008;BME280;15333;50.010;20.020;2023-05-21T13:29:31;99029.84;;;22.87;44.64
28008;BME280;15333;50.010;20.020;2023-05-21T13:32:33;99026.72;;;22.90;45.58
28008;BME280;15333;50.010;20.020;2023-05-21T13:35:33;99021.44;;;22.74;44.77
28008;BME280;15333;50.010;20.020;2023-05-21T13:38:35;99029.72;;;22.95;45.09
28008;BME280;15333;50.010;20.020;2023-05-21T13:41:35;99021.06;;;23.07;45.08
28008;BME280;15333;50.010;20.020;2023-05-21T13:44:37;99035.19;;;22.95;43.97
28008;BME280;15333;50.010;20.020;2023-05-21T13:47:38;99022.81;;;22.70;43.48
28008;BME280;15333;50.010;20.020;2023-05-21T13:50:39;99018.69;;;23.03;44.23
28008;BME280;15333;50.010;20.020;2023-05-21T13:53:40;99024.22;;;23.25;42.75
28008;BME280;15333;50.010;20.020;2023-05-21T13:56:41;99025.94;;;22.96;42.25
28008;BME280;15333;50.010;20.020;2023-05-21T13:59:42;99020.50;;;22.96;43.41
28008;BME280;15333;50.010;20.020;2023-05-21T14:02:43;99016.28;;;22.79;43.53
28008;BME280;15333;50.010;20.020;2023-05-21T14:05:45;99008.09;;;22.79;44.16
28008;BME280;15333;50.010;20.020;2023-05-21T14:08:48;99021.25;;;22.76;44.43
28008;BME280;15333;50.010;20.020;2023-05-21T14:11:48;99011.84;;;22.78;44.13
28008;BME280;15333;50.010;20.020;2023-05-21T14:14:50;99009.56;;;22.96;44.52
28008;BME280;15333;50.010;20.020;2023-05-21T14:17:51;99006.94;;;22.88;44.33
28008;BME280;15333;50.010;20.020;2023-05-21T14:20:53;99013.06;;;22.76;43.79
28008;BME280;15333;50.010;20.020;2023-05-21T14:23:54;99014.94;;;22.75;44.34
28008;BME280;15333;50.010;20.020;2023-05-21T14:26:55;99011.47;;;22.81;44.25
28008;BME280;15333;50.010;20.020;2023-05-21T14:29:56;99012.56;;;22.72;43.33
28008;BME280;15333;50.010;20.020;2023-05-21T14:32:57;99014.59;;;22.78;42.63
28008;BME280;15333;50.010;20.020;2023-05-21T14:35:59;99011.72;;;22.72;42.21
28008;BME280;15333;50.010;20.020;2023-05-21T14:39:00;99010.59;;;22.66;42.89
28008;BME280;15333;50.010;20.020;2023-05-21T14:42:03;99011.63;;;22.65;43.27
28008;BME280;15333;50.010;20.020;2023-05-21T14:45:05;99015.00;;;22.67;43.17
28008;BME280;15333;50.010;20.020;2023-05-21T14:48:06;99009.50;;;22.75;43.93
28008;BME280;15333;50.010;20.020;2023-05-21T14:51:12;99019.00;;;22.79;43.83
28008;BME280;15333;50.010;20.020;2023-05-21T14:54:15;99004.00;;;22.60;42.42
28008;BME280;15333;50.010;20.020;2023-05-21T14:57:16;99018.78;;;22.66;43.42
28008;BME280;15333;50.010;20.020;2023-05-21T15:00:17;99006.22;;;22.80;42.81
28008;BME280;15333;50.010;20.020;2023-05-21T15:03:18;99009.66;;;22.74;43.37
28008;BME280;15333;50.010;20.020;2023-05-21T15:06:19;99009.97;;;22.93;43.36
28008;BME280;15333;50.010;20.020;2023-05-21T15:09:20;99007.69;;;22.82;43.95
28008;BME280;15333;50.010;20.020;2023-05-21T15:12:21;99009.19;;;22.70;43.69
28008;BME280;15333;50.010;20.020;2023-05-21T15:15:22;99014.81;;;22.54;43.63
28008;BME280;15333;50.010;20.020;2023-05-21T15:18:23;99004.94;;;22.67;43.81
28008;BME280;15333;50.010;20.020;2023-05-21T15:21:24;99005.72;;;22.76;43.70
28008;BME280;15333;50.010;20.020;2023-05-21T15:24:25;99013.91;;;22.76;42.66
28008;BME280;15333;50.010;20.020;2023-05-21T15:27:26;99006.53;;;22.62;43.67
28008;BME280;15333;50.010;20.020;2023-05-21T15:30:27;99002.59;;;22.50;44.21
28008;BME280;15333;50.010;20.020;2023-05-21T15:33:28;98998.88;;;22.80;44.48
28008;BME280;15333;50.010;20.020;2023-05-21T15:36:29;99001.84;;;23.15;43.45
28008;BME280;15333;50.010;20.020;2023-05-21T15:39:30;98999.53;;;23.33;42.97
28008;BME280;15333;50.010;20.020;2023-05-21T15:42:31;99002.16;;;23.41;43.03
28008;BME280;15333;50.010;20.020;2023-05-21T15:45:32;99000.47;;;23.40;43.27
28008;BME280;15333;50.010;20.020;2023-05-21T15:48:32;98994.94;;;23.69;43.33
28008;BME280;15333;50.010;20.020;2023-05-21T15:51:33;98994.94;;;23.69;43.73
28008;BME280;15333;50.010;20.020;2023-05-21T15:54:34;99001.78;;;23.44;43.87
28008;BME280;15333;50.010;20.020;2023-05-21T15:57:35;99001.97;;;23.57;43.88
28008;BME280;15333;50.010;20.020;2023-05-21T16:00:36;99000.00;;;23.51;43.82
28008;BME280;15333;50.010;20.020;2023-05-21T16:03:37;99002.09;;;23.70;43.84
28008;BME280;15333;50.010;20.020;2023-05-21T16:06:38;99003.69;;;23.79;43.97